Aspen, CO

1:38 AM MDT on August 20, 2014 (GMT -0600)
Tiehack Aspen Colorado | Change Station
CLOSE
Current Station
Personal Weather Station
Location: Aspen, CO
Elevation: 8500 ft
Nearby Weather Stations
Active Advisory: Special Statement Active Notice: Public Information Statement

Elev 8500 ft 39.20 °N, 106.85 °W | Updated 28 seconds ago

Overcast
Overcast
51.0 °F
Feels Like 51.0 °F
N
0.0
Wind Variable Wind from SE
Gusts 0.0 mph

Today
High -- | Low -- °F
--% Chance of Precip.
Yesterday
High -- | Low -- °F
Precip. -- in
6:25 AM 7:55 PM
Waning Crescent, 23% visible
Pressure 29.76 in
Visibility 10.0 miles
Clouds Few 1700 ft
Overcast 9000 ft
Dew Point 51 °F
Humidity 100%
Rainfall 0.00 in
Snow Depth Not available.
UV 0 out of 12
Pollen 7.40 out of 12
Air Quality Not available.
Flu Activity Not available.
METAR KASE 200653Z AUTO 00000KT 10SM FEW017 OVC090 12/11 A3013 RMK AO2 SLP078 T01220111 402500117

More Conditions Fewer Conditions

Pressure 29.76 in
Visibility 10.0 miles
Clouds Few 1700 ft
Overcast 9000 ft
Dew Point 51 °F
Humidity 100%
Rainfall 0.00 in
Snow Depth Not available.
UV 0 out of 12
Pollen 7.40 out of 12
Air Quality Not available.
Flu Activity Not available.
METAR KASE 200653Z AUTO 00000KT 10SM FEW017 OVC090 12/11 A3013 RMK AO2 SLP078 T01220111 402500117

More Conditions Fewer Conditions

10-Day Weather Forecast

Almanac

Astronomy

Aug. 20, 2014 Rise Set
Actual Time 6:25 AM MDT 7:55 PM MDT
Civil Twilight 5:56 AM MDT 8:23 PM MDT
Nautical Twilight 5:22 AM MDT 8:57 PM MDT
Astronomical Twilight 4:46 AM MDT 9:33 PM MDT
Moon 2:08 AM MDT 4:42 PM MDT
Length of Visible Light 14h 26m
Length of Day
13h 30m
Tomorrow will be 2m 20s shorter.
Waning Crescent, 23% of the Moon is Illuminated
Today
Waning Crescent
Aug 25
New
Sep 2
First Quarter
Sep 8
Full
Sep 15
Last Quarter

Today's Extremes

State Highs State Lows

Community

WunderPhotos

Upload Photos

1,745,592 photos uploaded!

Nearby

Snow Depth

Station Depth Elevation
Independence Pass 192 in 10600 ft
Kiln 0 in 9600 ft
Nast Lake 0 in 8700 ft
Ivanhoe 0 in 10400 ft
Schofield Pass 0 in 10700 ft

Earthquake Activity

City Distance Mag. Time & Date
No recent earthquake activity has been reported nearby.
Minimum magnitude displayed is 2.5.

Coastal Water Temperatures

Place Temperature
No Stations Reporting

Nearby Weather Stations